createdAt,value
2018-11-05T00:01:14.002Z,71.50
2018-11-05T00:06:48.786Z,71.70
2018-11-05T00:09:30.259Z,71.90
2018-11-05T00:11:58.967Z,71.80
2018-11-05T00:14:27.447Z,71.60
2018-11-05T00:17:02.433Z,71.70
2018-11-05T00:19:31.150Z,71.70
2018-11-05T00:22:00.672Z,71.90
2018-11-05T00:24:29.864Z,72.00
2018-11-05T00:26:58.949Z,72.00
2018-11-05T00:29:27.951Z,72.20
2018-11-05T00:31:56.934Z,72.30
2018-11-05T00:34:26.411Z,72.20
2018-11-05T00:36:57.265Z,72.30
2018-11-05T00:39:25.833Z,72.30
2018-11-05T00:41:54.527Z,72.40
2018-11-05T00:44:23.116Z,72.50
2018-11-05T00:46:51.721Z,72.60
2018-11-05T00:49:20.508Z,72.60
2018-11-05T00:51:49.497Z,72.50
2018-11-05T00:54:18.090Z,72.50
2018-11-05T00:56:47.341Z,72.60
2018-11-05T00:59:16.135Z,72.50
2018-11-05T01:01:44.763Z,72.70
2018-11-05T01:04:13.337Z,72.80
2018-11-05T01:06:41.871Z,72.80
2018-11-05T01:09:10.421Z,72.80
2018-11-05T01:11:39.338Z,72.80
2018-11-05T01:14:08.291Z,72.90
2018-11-05T01:16:36.887Z,73.00
2018-11-05T01:19:05.734Z,73.00
2018-11-05T01:21:34.471Z,73.10
2018-11-05T01:24:03.002Z,73.20
2018-11-05T01:26:31.524Z,73.20
2018-11-05T01:29:00.050Z,74.00
2018-11-05T01:31:29.039Z,73.40
2018-11-05T01:34:08.364Z,73.30
2018-11-05T01:36:36.825Z,73.50
2018-11-05T01:39:07.466Z,73.60
2018-11-05T01:41:41.929Z,73.60
2018-11-05T01:44:10.534Z,73.70
2018-11-05T01:46:39.159Z,73.80
2018-11-05T01:49:07.739Z,73.80
2018-11-05T01:51:36.292Z,73.80
2018-11-05T01:54:04.824Z,73.70
2018-11-05T01:56:33.358Z,73.90
2018-11-05T01:59:01.865Z,73.90
2018-11-05T02:01:30.567Z,74.00
2018-11-05T02:03:59.209Z,74.00
2018-11-05T02:06:28.755Z,74.00
2018-11-05T02:08:57.892Z,74.20
2018-11-05T02:11:27.104Z,74.10
2018-11-05T02:13:57.448Z,74.20
2018-11-05T02:16:26.628Z,74.20
2018-11-05T02:18:55.459Z,74.20
2018-11-05T02:21:24.052Z,74.20
2018-11-05T02:23:53.204Z,74.30
2018-11-05T02:26:22.012Z,74.20
2018-11-05T02:28:50.543Z,74.20
2018-11-05T02:31:19.037Z,74.30
2018-11-05T02:33:47.508Z,74.30
2018-11-05T02:36:16.184Z,74.30
2018-11-05T02:38:44.803Z,74.30
2018-11-05T02:41:13.698Z,74.30
2018-11-05T02:43:42.798Z,74.30
2018-11-05T02:54:06.137Z,74.20
2018-11-05T02:56:34.994Z,73.60
2018-11-05T02:59:04.250Z,73.80
2018-11-05T03:01:32.816Z,74.00
2018-11-05T03:04:01.347Z,74.20
2018-11-05T03:06:30.074Z,74.20
2018-11-05T03:08:58.773Z,74.20
2018-11-05T03:11:27.634Z,74.20
2018-11-05T03:13:56.383Z,74.30
2018-11-05T03:16:25.015Z,74.30
2018-11-05T03:18:53.566Z,74.50
2018-11-05T03:21:22.065Z,74.80
2018-11-05T03:23:50.545Z,74.90
2018-11-05T03:26:19.219Z,74.90
2018-11-05T03:28:47.689Z,75.60
2018-11-05T03:31:16.733Z,74.90
2018-11-05T03:33:45.167Z,75.00
2018-11-05T03:36:13.836Z,74.80
2018-11-05T03:38:42.332Z,75.10
2018-11-05T03:41:10.825Z,75.10
2018-11-05T03:43:40.527Z,75.00
2018-11-05T03:46:09.035Z,75.20
2018-11-05T03:48:37.489Z,75.10
2018-11-05T03:51:06.121Z,75.20
2018-11-05T03:53:35.566Z,75.10
2018-11-05T03:56:05.897Z,75.00
2018-11-05T03:58:35.289Z,75.00
2018-11-05T04:01:06.109Z,74.80
2018-11-05T04:03:35.473Z,74.70
2018-11-05T04:06:04.893Z,74.60
2018-11-05T04:08:33.555Z,74.50
2018-11-05T04:11:02.037Z,74.40
2018-11-05T04:13:30.667Z,74.30
2018-11-05T04:16:00.141Z,74.10
2018-11-05T04:18:29.785Z,74.00
2018-11-05T04:21:04.735Z,74.00
2018-11-05T04:23:34.656Z,73.60
2018-11-05T04:26:03.557Z,73.60
2018-11-05T04:28:32.065Z,73.40
2018-11-05T04:31:00.541Z,73.40
2018-11-05T04:33:29.004Z,73.30
2018-11-05T04:35:57.497Z,73.20
2018-11-05T04:38:29.454Z,73.20
2018-11-05T04:40:57.940Z,73.00
2018-11-05T04:43:26.413Z,73.00
2018-11-05T04:45:54.963Z,72.90
2018-11-05T04:48:24.590Z,72.80
2018-11-05T04:50:54.025Z,72.80
2018-11-05T04:53:22.705Z,72.70
2018-11-05T04:55:51.193Z,72.60
2018-11-05T04:58:19.846Z,72.60
2018-11-05T05:00:55.883Z,72.50
2018-11-05T05:03:24.492Z,72.70
2018-11-05T05:05:55.526Z,72.50
2018-11-05T05:08:25.662Z,72.60
2018-11-05T05:10:55.422Z,72.60
2018-11-05T05:13:25.473Z,72.50
2018-11-05T05:15:57.469Z,72.30
2018-11-05T05:18:28.193Z,72.40
2018-11-05T05:20:57.022Z,72.10
2018-11-05T05:23:25.619Z,72.10
2018-11-05T05:25:54.175Z,72.10
2018-11-05T05:28:22.860Z,72.60
2018-11-05T05:30:51.392Z,71.80
2018-11-05T05:33:20.487Z,71.90
2018-11-05T05:35:52.243Z,71.80
2018-11-05T05:38:20.896Z,71.60
2018-11-05T05:40:49.676Z,71.70
2018-11-05T05:43:19.728Z,71.60
2018-11-05T05:45:48.583Z,71.60
2018-11-05T05:48:17.066Z,71.40
2018-11-05T05:50:45.674Z,71.30
2018-11-05T05:53:16.954Z,71.50
2018-11-05T05:55:45.718Z,71.50
2018-11-05T05:58:16.356Z,71.50
2018-11-05T06:00:46.359Z,71.40
2018-11-05T06:03:16.529Z,71.40
2018-11-05T06:05:48.452Z,71.40
2018-11-05T06:08:19.162Z,71.40
2018-11-05T06:10:47.966Z,71.40
2018-11-05T06:13:16.676Z,71.20
2018-11-05T06:15:46.712Z,71.20
2018-11-05T06:18:16.154Z,71.20
2018-11-05T06:20:45.157Z,71.20
2018-11-05T06:23:13.621Z,71.20
2018-11-05T06:25:42.081Z,71.10
2018-11-05T06:28:10.528Z,71.10
2018-11-05T06:30:39.008Z,71.20
2018-11-05T06:33:07.566Z,71.10
2018-11-05T06:35:36.060Z,71.00
2018-11-05T06:38:04.585Z,70.90
2018-11-05T06:40:35.096Z,70.90
2018-11-05T06:43:03.596Z,70.90
2018-11-05T06:45:32.187Z,70.70
2018-11-05T06:48:01.061Z,70.70
2018-11-05T06:50:29.784Z,70.70
2018-11-05T06:52:58.556Z,70.60
2018-11-05T06:55:27.128Z,70.60
2018-11-05T06:57:56.807Z,70.50
2018-11-05T07:00:27.516Z,70.50
2018-11-05T07:02:58.452Z,70.40
2018-11-05T07:05:29.139Z,70.20
2018-11-05T07:07:59.122Z,70.10
2018-11-05T07:10:30.566Z,70.10
2018-11-05T07:15:52.754Z,69.90
2018-11-05T07:18:21.440Z,69.90
2018-11-05T07:20:50.500Z,69.70
2018-11-05T07:23:19.100Z,69.50
2018-11-05T07:25:48.665Z,69.40
2018-11-05T07:28:17.193Z,69.50
2018-11-05T07:30:45.696Z,69.30
2018-11-05T07:33:14.210Z,69.30
2018-11-05T07:35:42.804Z,69.00
2018-11-05T07:38:11.253Z,69.00
2018-11-05T07:40:41.795Z,68.80
2018-11-05T07:43:24.813Z,68.60
2018-11-05T07:45:55.373Z,68.70
2018-11-05T07:48:36.776Z,68.40
2018-11-05T07:51:36.528Z,68.40
2018-11-05T07:54:31.008Z,68.30
2018-11-05T07:57:15.355Z,68.20
2018-11-05T07:59:51.218Z,68.00
2018-11-05T08:05:13.076Z,67.90
2018-11-05T08:07:41.812Z,67.90
2018-11-05T08:10:17.280Z,67.60
2018-11-05T08:12:45.796Z,67.60
2018-11-05T08:15:18.230Z,67.50
2018-11-05T08:17:48.854Z,67.40
2018-11-05T08:20:18.677Z,67.20
2018-11-05T08:22:54.482Z,67.00
2018-11-05T08:25:23.419Z,67.00
2018-11-05T08:27:51.933Z,66.90
2018-11-05T08:30:23.567Z,66.70
2018-11-05T08:32:59.580Z,66.60
2018-11-05T08:35:28.428Z,66.40
2018-11-05T08:37:57.970Z,66.30
2018-11-05T08:40:44.436Z,66.00
2018-11-05T08:43:14.530Z,66.00
2018-11-05T08:45:44.641Z,65.90
2018-11-05T08:48:17.643Z,65.70
2018-11-05T08:50:46.355Z,65.60
2018-11-05T08:53:14.815Z,65.30
2018-11-05T08:55:43.842Z,65.10
2018-11-05T08:58:30.390Z,65.10
2018-11-05T09:01:11.844Z,65.00
2018-11-05T09:03:40.272Z,64.60
2018-11-05T09:06:09.809Z,64.50
2018-11-05T09:08:38.420Z,64.50
2018-11-05T09:11:07.636Z,64.40
2018-11-05T09:13:35.858Z,64.40
2018-11-05T09:16:04.456Z,64.10
2018-11-05T09:18:32.966Z,63.90
2018-11-05T09:21:01.495Z,63.80
2018-11-05T09:23:30.616Z,63.80
2018-11-05T09:25:59.093Z,63.80
2018-11-05T09:28:27.597Z,63.60
2018-11-05T09:30:56.367Z,63.40
2018-11-05T09:33:24.891Z,63.30
2018-11-05T09:35:53.362Z,63.00
2018-11-05T09:38:22.967Z,62.80
2018-11-05T09:40:51.888Z,62.80
2018-11-05T09:43:21.196Z,62.70
2018-11-05T09:45:51.070Z,62.50
2018-11-05T09:48:20.173Z,62.30
2018-11-05T09:50:48.744Z,62.30
2018-11-05T09:53:17.395Z,62.10
2018-11-05T09:55:46.061Z,62.10
2018-11-05T09:58:14.703Z,62.00
2018-11-05T10:00:43.196Z,61.80
2018-11-05T10:03:16.592Z,61.60
2018-11-05T10:05:48.104Z,61.50
2018-11-05T10:08:17.584Z,61.20
2018-11-05T10:10:46.390Z,60.90
2018-11-05T10:13:15.081Z,60.40
2018-11-05T10:15:44.116Z,60.30
2018-11-05T10:18:12.632Z,60.20
2018-11-05T10:20:41.085Z,60.00
2018-11-05T10:23:09.580Z,59.70
2018-11-05T10:25:38.122Z,59.50
2018-11-05T10:28:07.992Z,59.00
2018-11-05T10:30:36.598Z,59.10
2018-11-05T10:33:05.422Z,59.00
2018-11-05T10:35:39.139Z,59.10
2018-11-05T10:38:07.640Z,58.90
2018-11-05T10:40:36.232Z,58.60
2018-11-05T10:43:05.431Z,58.70
2018-11-05T10:45:33.912Z,58.40
2018-11-05T10:48:02.541Z,58.00
2018-11-05T10:50:31.058Z,57.90
2018-11-05T10:52:59.516Z,57.70
2018-11-05T10:55:27.984Z,57.50
2018-11-05T10:57:56.643Z,57.40
2018-11-05T11:00:30.417Z,57.40
2018-11-05T11:03:04.173Z,57.10
2018-11-05T11:05:32.865Z,56.90
2018-11-05T11:08:02.102Z,56.60
2018-11-05T11:10:31.329Z,56.50
2018-11-05T11:12:59.844Z,56.30
2018-11-05T11:15:28.329Z,56.10
2018-11-05T11:17:57.260Z,55.70
2018-11-05T11:20:25.780Z,55.70
2018-11-05T11:22:54.424Z,55.50
2018-11-05T11:25:23.018Z,55.20
2018-11-05T11:27:51.677Z,54.90
2018-11-05T11:30:20.018Z,54.80
2018-11-05T11:32:49.361Z,54.60
2018-11-05T11:35:17.871Z,54.80
2018-11-05T11:37:46.412Z,54.60
2018-11-05T11:40:17.287Z,54.10
2018-11-05T11:42:46.766Z,53.30
2018-11-05T11:45:16.088Z,52.90
2018-11-05T11:47:44.567Z,52.30
2018-11-05T11:50:14.438Z,52.10
2018-11-05T11:52:43.184Z,52.40
2018-11-05T11:55:13.521Z,52.10
2018-11-05T11:57:42.351Z,51.50
2018-11-05T12:00:19.004Z,51.40
2018-11-05T12:02:48.324Z,51.40
2018-11-05T12:05:17.132Z,51.40
2018-11-05T12:07:45.632Z,51.20
2018-11-05T12:10:17.433Z,51.90
2018-11-05T12:12:46.777Z,51.50
2018-11-05T12:15:16.386Z,51.80
2018-11-05T12:17:45.716Z,52.00
2018-11-05T12:20:15.431Z,52.80
2018-11-05T12:22:44.689Z,52.30
2018-11-05T12:25:13.361Z,52.00
2018-11-05T12:27:41.975Z,51.60
2018-11-05T12:30:20.949Z,51.10
2018-11-05T12:32:51.169Z,50.70
2018-11-05T12:35:22.387Z,50.90
2018-11-05T12:37:52.729Z,51.10
2018-11-05T12:40:23.696Z,51.40
2018-11-05T12:42:54.397Z,51.60
2018-11-05T12:45:24.685Z,51.90
2018-11-05T12:47:55.197Z,52.20
2018-11-05T12:50:24.875Z,52.40
2018-11-05T12:52:54.835Z,52.60
2018-11-05T12:55:23.681Z,52.60
2018-11-05T12:57:52.327Z,52.70
2018-11-05T13:00:23.197Z,52.80
2018-11-05T13:02:53.871Z,52.80
2018-11-05T13:05:23.217Z,52.90
2018-11-05T13:07:51.920Z,53.10
2018-11-05T13:13:12.864Z,53.30
2018-11-05T13:15:41.421Z,53.30
2018-11-05T13:18:10.037Z,53.40
2018-11-05T13:20:38.725Z,53.40
2018-11-05T13:23:07.391Z,53.40
2018-11-05T13:25:35.907Z,53.40
2018-11-05T13:28:05.098Z,53.40
2018-11-05T13:30:35.270Z,53.50
2018-11-05T13:33:03.970Z,53.50
2018-11-05T13:35:32.805Z,53.60
2018-11-05T13:38:05.217Z,53.60
2018-11-05T13:40:36.071Z,53.80
2018-11-05T13:43:05.017Z,53.80
2018-11-05T13:45:33.787Z,53.80
2018-11-05T13:48:02.808Z,53.80
2018-11-05T13:50:32.449Z,53.80
2018-11-05T13:53:01.587Z,53.80
2018-11-05T13:55:30.367Z,53.90
2018-11-05T13:57:58.923Z,54.50
2018-11-05T14:00:27.364Z,53.80
2018-11-05T14:02:55.845Z,53.80
2018-11-05T14:05:24.343Z,53.90
2018-11-05T14:07:52.835Z,53.90
2018-11-05T14:10:22.076Z,54.00
2018-11-05T14:13:03.561Z,54.00
2018-11-05T14:15:32.070Z,54.00
2018-11-05T14:18:00.589Z,54.00
2018-11-05T14:20:29.067Z,54.00
2018-11-05T14:22:57.589Z,53.90
2018-11-05T14:25:26.129Z,53.90
2018-11-05T14:27:54.834Z,54.00
2018-11-05T14:30:23.365Z,54.00
2018-11-05T14:32:52.147Z,54.10
2018-11-05T14:35:21.665Z,54.20
2018-11-05T14:37:50.573Z,54.20
2018-11-05T14:40:19.733Z,54.00
2018-11-05T14:42:48.349Z,54.10
2018-11-05T14:45:18.426Z,54.10
2018-11-05T14:47:47.691Z,54.10
2018-11-05T14:50:18.037Z,54.20
2018-11-05T14:52:46.680Z,54.90
2018-11-05T14:55:16.805Z,54.20
2018-11-05T14:57:46.279Z,54.30
2018-11-05T15:00:20.535Z,54.30
2018-11-05T15:02:49.675Z,54.40
2018-11-05T15:05:18.566Z,54.50
2018-11-05T15:07:47.883Z,54.60
2018-11-05T15:10:30.904Z,54.60
2018-11-05T15:12:59.556Z,54.60
2018-11-05T15:15:28.236Z,54.60
2018-11-05T15:17:57.106Z,54.70
2018-11-05T15:20:27.063Z,55.10
2018-11-05T15:22:58.761Z,54.50
2018-11-05T15:25:38.938Z,54.60
2018-11-05T15:28:08.226Z,54.40
2018-11-05T15:30:36.842Z,54.40
2018-11-05T15:33:05.571Z,54.40
2018-11-05T15:35:34.618Z,54.30
2018-11-05T15:38:03.524Z,54.40
2018-11-05T15:40:33.429Z,54.30
2018-11-05T15:43:02.678Z,54.40
2018-11-05T15:45:31.493Z,54.40
2018-11-05T15:48:01.150Z,54.30
2018-11-05T15:50:29.755Z,54.30
2018-11-05T15:53:00.437Z,54.30
2018-11-05T15:55:34.697Z,54.30
2018-11-05T15:58:09.154Z,54.30
2018-11-05T16:00:41.939Z,54.30
2018-11-05T16:03:11.450Z,54.30
2018-11-05T16:05:50.667Z,54.30
2018-11-05T16:08:26.319Z,54.30
2018-11-05T16:11:01.168Z,54.70
2018-11-05T16:13:38.992Z,54.50
2018-11-05T16:16:17.795Z,54.60
2018-11-05T16:18:58.032Z,54.60
2018-11-05T16:25:06.232Z,54.50
2018-11-05T16:27:48.223Z,55.00
2018-11-05T16:30:22.965Z,54.70
2018-11-05T16:32:53.885Z,54.60
2018-11-05T16:35:26.031Z,54.60
2018-11-05T16:37:56.679Z,54.70
2018-11-05T16:40:25.625Z,54.80
2018-11-05T16:42:54.268Z,54.70
2018-11-05T16:45:23.637Z,54.70
2018-11-05T16:47:52.427Z,54.80
2018-11-05T16:50:24.057Z,54.90
2018-11-05T16:52:52.803Z,54.80
2018-11-05T16:55:31.739Z,54.90
2018-11-05T16:58:00.429Z,54.80
2018-11-05T17:00:29.316Z,54.90
2018-11-05T17:03:00.513Z,54.90
2018-11-05T17:05:29.482Z,55.00
2018-11-05T17:07:58.575Z,55.00
2018-11-05T17:10:27.201Z,55.00
2018-11-05T17:12:55.721Z,55.10
2018-11-05T17:15:41.007Z,55.00
2018-11-05T17:18:11.985Z,55.00
2018-11-05T17:20:49.731Z,55.00
2018-11-05T17:23:20.124Z,55.00
2018-11-05T17:26:01.162Z,55.00
2018-11-05T17:28:31.969Z,55.00
2018-11-05T17:31:01.225Z,55.10
2018-11-05T17:33:29.823Z,55.10
2018-11-05T17:35:58.393Z,55.00
2018-11-05T17:38:27.027Z,55.00
2018-11-05T17:40:58.659Z,55.00
2018-11-05T17:43:28.386Z,55.00
2018-11-05T17:45:57.819Z,54.90
2018-11-05T17:48:27.337Z,54.90
2018-11-05T17:50:56.120Z,54.90
2018-11-05T17:53:28.713Z,54.90
2018-11-05T17:55:58.315Z,54.80
2018-11-05T17:58:27.785Z,54.80
2018-11-05T18:00:57.153Z,54.90
2018-11-05T18:03:27.032Z,55.40
2018-11-05T18:05:55.897Z,54.70
2018-11-05T18:08:24.798Z,54.70
2018-11-05T18:10:54.245Z,54.50
2018-11-05T18:13:24.024Z,54.50
2018-11-05T18:15:52.529Z,54.50
2018-11-05T18:18:21.549Z,54.40
2018-11-05T18:20:50.111Z,54.60
2018-11-05T18:23:18.603Z,54.50
2018-11-05T18:25:51.110Z,54.40
2018-11-05T18:28:20.133Z,54.40
2018-11-05T18:30:49.157Z,54.30
2018-11-05T18:33:18.017Z,54.30
2018-11-05T18:35:46.611Z,54.30
2018-11-05T18:38:15.241Z,54.20
2018-11-05T18:40:44.137Z,54.20
2018-11-05T18:43:12.797Z,54.20
2018-11-05T18:45:41.285Z,54.20
2018-11-05T18:48:09.832Z,54.20
2018-11-05T18:50:38.345Z,54.20
2018-11-05T18:53:07.638Z,54.20
2018-11-05T18:55:38.122Z,54.20
2018-11-05T18:58:08.452Z,54.30
2018-11-05T19:00:42.272Z,54.20
2018-11-05T19:05:51.309Z,54.40
2018-11-05T19:08:21.433Z,54.50
2018-11-05T19:11:02.043Z,54.40
2018-11-05T19:13:30.750Z,54.30
2018-11-05T19:15:59.970Z,54.30
2018-11-05T19:18:28.801Z,54.30
2018-11-05T19:20:57.612Z,54.40
2018-11-05T19:23:29.669Z,54.40
2018-11-05T19:25:59.424Z,54.50
2018-11-05T19:28:28.415Z,54.50
2018-11-05T19:30:57.009Z,54.50
2018-11-05T19:33:26.543Z,54.40
2018-11-05T19:35:56.114Z,54.50
2018-11-05T19:38:24.779Z,54.50
2018-11-05T19:40:53.808Z,54.70
2018-11-05T19:43:22.582Z,54.70
2018-11-05T19:45:51.846Z,54.70
2018-11-05T19:48:23.050Z,54.80
2018-11-05T19:50:51.882Z,54.60
2018-11-05T19:53:30.551Z,54.70
2018-11-05T19:55:59.773Z,54.70
2018-11-05T19:58:49.786Z,54.90
2018-11-05T20:01:19.219Z,55.50
2018-11-05T20:03:48.460Z,54.90
2018-11-05T20:06:17.187Z,54.80
2018-11-05T20:08:46.560Z,54.90
2018-11-05T20:11:16.067Z,54.90
2018-11-05T20:13:50.689Z,55.00
2018-11-05T20:16:19.729Z,55.00
2018-11-05T20:18:49.123Z,55.00
2018-11-05T20:21:18.013Z,55.10
2018-11-05T20:23:47.966Z,55.20
2018-11-05T20:26:16.774Z,55.20
2018-11-05T20:28:45.674Z,55.30
2018-11-05T20:31:14.370Z,55.30
2018-11-05T20:33:43.068Z,55.20
2018-11-05T20:38:53.730Z,55.40
2018-11-05T20:41:31.340Z,55.70
2018-11-05T20:44:00.136Z,55.70
2018-11-05T20:46:32.372Z,55.70
2018-11-05T20:49:04.040Z,55.80
2018-11-05T20:51:32.860Z,55.80
2018-11-05T20:56:58.636Z,55.90
2018-11-05T20:59:27.333Z,55.90
2018-11-05T21:01:55.971Z,56.00
2018-11-05T21:04:24.745Z,56.10
2018-11-05T21:06:55.304Z,56.10
2018-11-05T21:09:24.801Z,56.30
2018-11-05T21:11:55.467Z,56.20
2018-11-05T21:14:25.561Z,56.20
2018-11-05T21:17:01.033Z,56.30
2018-11-05T21:19:30.405Z,56.40
2018-11-05T21:22:02.684Z,56.80
2018-11-05T21:24:31.989Z,56.50
2018-11-05T21:27:01.766Z,56.60
2018-11-05T21:29:31.232Z,56.70
2018-11-05T21:32:01.907Z,56.80
2018-11-05T21:34:35.177Z,57.00
2018-11-05T21:37:09.998Z,57.10
2018-11-05T21:39:39.022Z,57.20
2018-11-05T21:42:09.799Z,57.30
2018-11-05T21:44:40.151Z,57.30
2018-11-05T21:47:11.530Z,57.50
2018-11-05T21:49:41.356Z,57.60
2018-11-05T21:52:13.649Z,57.70
2018-11-05T21:54:42.952Z,57.80
2018-11-05T21:57:12.814Z,58.00
2018-11-05T21:59:43.068Z,58.20
2018-11-05T22:02:15.842Z,58.30
2018-11-05T22:04:45.424Z,58.30
2018-11-05T22:07:14.924Z,58.50
2018-11-05T22:09:44.589Z,58.60
2018-11-05T22:12:13.051Z,58.60
2018-11-05T22:14:41.588Z,58.70
2018-11-05T22:19:46.574Z,58.80
2018-11-05T22:22:15.136Z,58.80
2018-11-05T22:24:43.737Z,58.90
2018-11-05T22:27:12.748Z,58.90
2018-11-05T22:29:41.991Z,59.00
2018-11-05T22:32:10.868Z,59.00
2018-11-05T22:34:39.404Z,59.10
2018-11-05T22:37:13.994Z,59.20
2018-11-05T22:39:44.011Z,59.30
2018-11-05T22:42:13.163Z,59.50
2018-11-05T22:44:42.764Z,59.60
2018-11-05T22:47:11.803Z,59.70
2018-11-05T22:49:41.424Z,59.80
2018-11-05T22:52:10.896Z,59.90
2018-11-05T22:54:40.904Z,60.00
2018-11-05T22:57:10.340Z,60.10
2018-11-05T22:59:41.976Z,61.20
2018-11-05T23:02:13.784Z,60.90
2018-11-05T23:04:43.150Z,60.90
2018-11-05T23:07:12.542Z,60.90
2018-11-05T23:09:41.663Z,60.90
2018-11-05T23:12:11.060Z,61.00
2018-11-05T23:14:42.687Z,61.10
2018-11-05T23:17:12.233Z,61.20
2018-11-05T23:19:41.011Z,61.30
2018-11-05T23:22:10.092Z,61.20
2018-11-05T23:24:42.276Z,61.30
2018-11-05T23:27:11.115Z,61.60
2018-11-05T23:29:42.951Z,61.60
2018-11-05T23:32:14.197Z,61.60
2018-11-05T23:34:42.838Z,61.70
2018-11-05T23:37:13.901Z,61.90
2018-11-05T23:39:43.240Z,62.00
2018-11-05T23:42:12.886Z,62.10
2018-11-05T23:44:42.569Z,62.10
2018-11-05T23:47:11.942Z,62.20
2018-11-05T23:49:48.505Z,62.30
2018-11-05T23:52:32.560Z,62.60
2018-11-05T23:55:07.432Z,62.40
